createdAt,value
2019-02-10T00:00:28.050Z,1022.37
2019-02-10T00:01:28.036Z,1022.36
2019-02-10T00:02:28.027Z,1022.46
2019-02-10T00:03:28.013Z,1022.49
2019-02-10T00:04:28.000Z,1022.45
2019-02-10T00:05:27.986Z,1022.47
2019-02-10T00:06:27.974Z,1022.51
2019-02-10T00:07:27.964Z,1022.5
2019-02-10T00:08:27.948Z,1022.5
2019-02-10T00:09:27.936Z,1022.53
2019-02-10T00:10:27.923Z,1022.55
2019-02-10T00:11:27.910Z,1022.48
2019-02-10T00:12:27.895Z,1022.56
2019-02-10T00:13:27.884Z,1022.5
2019-02-10T00:14:27.871Z,1022.61
2019-02-10T00:15:27.859Z,1022.55
2019-02-10T00:16:27.844Z,1022.59
2019-02-10T00:17:27.830Z,1022.62
2019-02-10T00:18:27.822Z,1022.58
2019-02-10T00:19:27.804Z,1022.65
2019-02-10T00:20:27.793Z,1022.68
2019-02-10T00:21:27.780Z,1022.72
2019-02-10T00:22:27.768Z,1022.68
2019-02-10T00:23:27.753Z,1022.63
2019-02-10T00:24:27.740Z,1022.57
2019-02-10T00:25:27.726Z,1022.61
2019-02-10T00:26:27.714Z,1022.45
2019-02-10T00:27:27.702Z,1022.46
2019-02-10T00:28:27.688Z,1022.41
2019-02-10T00:29:27.676Z,1022.38
2019-02-10T00:30:27.662Z,1022.37
2019-02-10T00:31:27.649Z,1022.33
2019-02-10T00:32:27.637Z,1022.32
2019-02-10T00:33:27.623Z,1022.3
2019-02-10T00:34:27.609Z,1022.28
2019-02-10T00:35:27.596Z,1022.29
2019-02-10T00:36:32.816Z,1022.27
2019-02-10T00:37:27.569Z,1022.3
2019-02-10T00:38:27.557Z,1022.35
2019-02-10T00:39:27.544Z,1022.33
2019-02-10T00:40:27.531Z,1022.41
2019-02-10T00:41:27.516Z,1022.4
2019-02-10T00:42:27.505Z,1022.46
2019-02-10T00:43:27.492Z,1022.52
2019-02-10T00:44:27.479Z,1022.55
2019-02-10T00:45:27.466Z,1022.52
2019-02-10T00:46:27.456Z,1022.58
2019-02-10T00:47:27.440Z,1022.58
2019-02-10T00:48:27.425Z,1022.57
2019-02-10T00:49:27.412Z,1022.57
2019-02-10T00:50:27.400Z,1022.57
2019-02-10T00:51:27.388Z,1022.62
2019-02-10T00:52:27.374Z,1022.56
2019-02-10T00:53:27.363Z,1022.66
2019-02-10T00:54:27.348Z,1022.58
2019-02-10T00:55:27.335Z,1022.62
2019-02-10T00:56:27.324Z,1022.61
2019-02-10T00:57:27.309Z,1022.62
2019-02-10T00:58:27.296Z,1022.6
2019-02-10T00:59:27.282Z,1022.66
2019-02-10T01:00:27.271Z,1022.62
2019-02-10T01:01:27.256Z,1022.68
2019-02-10T01:02:27.242Z,1022.67
2019-02-10T01:03:27.229Z,1022.64
2019-02-10T01:04:27.217Z,1022.66
2019-02-10T01:05:27.203Z,1022.63
2019-02-10T01:06:27.191Z,1022.66
2019-02-10T01:07:27.177Z,1022.64
2019-02-10T01:08:27.163Z,1022.67
2019-02-10T01:09:27.151Z,1022.66
2019-02-10T01:10:27.136Z,1022.71
2019-02-10T01:11:27.123Z,1022.72
2019-02-10T01:13:27.097Z,1022.72
2019-02-10T01:14:27.086Z,1022.73
2019-02-10T01:15:27.070Z,1022.74
2019-02-10T01:16:27.057Z,1022.74
2019-02-10T01:17:27.044Z,1022.67
2019-02-10T01:18:27.029Z,1022.67
2019-02-10T01:19:27.020Z,1022.72
2019-02-10T01:20:27.003Z,1022.71
2019-02-10T01:21:26.990Z,1022.72
2019-02-10T01:22:26.976Z,1022.71
2019-02-10T01:23:26.963Z,1022.73
2019-02-10T01:24:26.950Z,1022.74
2019-02-10T01:25:26.936Z,1022.76
2019-02-10T01:26:26.922Z,1022.75
2019-02-10T01:27:26.909Z,1022.75
2019-02-10T01:28:26.896Z,1022.74
2019-02-10T01:29:26.882Z,1022.76
2019-02-10T01:30:26.869Z,1022.81
2019-02-10T01:31:26.857Z,1022.8
2019-02-10T01:32:26.840Z,1022.79
2019-02-10T01:33:26.828Z,1022.83
2019-02-10T01:34:26.814Z,1022.78
2019-02-10T01:35:26.801Z,1022.75
2019-02-10T01:36:26.786Z,1022.77
2019-02-10T01:37:26.772Z,1022.77
2019-02-10T01:38:26.759Z,1022.8
2019-02-10T01:39:26.746Z,1022.78
2019-02-10T01:40:26.732Z,1022.77
2019-02-10T01:41:26.720Z,1022.75
2019-02-10T01:42:26.705Z,1022.75
2019-02-10T01:43:26.942Z,1022.74
2019-02-10T01:44:26.677Z,1022.76
2019-02-10T01:45:26.664Z,1022.8
2019-02-10T01:46:26.651Z,1022.81
2019-02-10T01:47:26.636Z,1022.8
2019-02-10T01:48:27.442Z,1022.78
2019-02-10T01:49:26.609Z,1022.78
2019-02-10T01:50:26.595Z,1022.79
2019-02-10T01:51:26.580Z,1022.8
2019-02-10T01:52:26.568Z,1022.81
2019-02-10T01:53:26.554Z,1022.84
2019-02-10T01:54:26.541Z,1022.77
2019-02-10T01:55:26.528Z,1022.8
2019-02-10T01:56:26.513Z,1022.81
2019-02-10T01:57:26.499Z,1022.79
2019-02-10T01:58:26.492Z,1022.76
2019-02-10T01:59:26.471Z,1022.8
2019-02-10T02:00:26.457Z,1022.75
2019-02-10T02:01:26.444Z,1022.72
2019-02-10T02:02:26.429Z,1022.7
2019-02-10T02:03:26.416Z,1022.7
2019-02-10T02:04:26.402Z,1022.68
2019-02-10T02:05:26.388Z,1022.66
2019-02-10T02:06:26.379Z,1022.67
2019-02-10T02:07:26.361Z,1022.67
2019-02-10T02:08:26.348Z,1022.66
2019-02-10T02:09:26.333Z,1022.66
2019-02-10T02:10:26.319Z,1022.66
2019-02-10T02:11:26.305Z,1022.65
2019-02-10T02:12:26.291Z,1022.67
2019-02-10T02:13:26.276Z,1022.69
2019-02-10T02:14:26.263Z,1022.67
2019-02-10T02:15:26.249Z,1022.71
2019-02-10T02:16:26.235Z,1022.66
2019-02-10T02:17:26.222Z,1022.67
2019-02-10T02:18:26.208Z,1022.66
2019-02-10T02:19:26.194Z,1022.68
2019-02-10T02:20:26.179Z,1022.69
2019-02-10T02:21:26.165Z,1022.69
2019-02-10T02:22:26.152Z,1022.69
2019-02-10T02:23:26.137Z,1022.69
2019-02-10T02:24:26.125Z,1022.68
2019-02-10T02:25:26.109Z,1022.68
2019-02-10T02:26:26.096Z,1022.72
2019-02-10T02:27:26.081Z,1022.71
2019-02-10T02:28:26.067Z,1022.65
2019-02-10T02:29:26.053Z,1022.64
2019-02-10T02:30:26.040Z,1022.64
2019-02-10T02:31:26.025Z,1022.63
2019-02-10T02:32:26.015Z,1022.64
2019-02-10T02:33:25.997Z,1022.64
2019-02-10T02:34:25.983Z,1022.67
2019-02-10T02:35:25.970Z,1022.62
2019-02-10T02:36:25.955Z,1022.61
2019-02-10T02:37:25.942Z,1022.6
2019-02-10T02:38:25.929Z,1022.52
2019-02-10T02:39:25.912Z,1022.52
2019-02-10T02:40:25.898Z,1022.51
2019-02-10T02:41:25.885Z,1022.47
2019-02-10T02:42:25.870Z,1022.43
2019-02-10T02:43:25.858Z,1022.36
2019-02-10T02:44:25.842Z,1022.37
2019-02-10T02:45:25.827Z,1022.34
2019-02-10T02:46:25.813Z,1022.28
2019-02-10T02:47:25.800Z,1022.29
2019-02-10T02:48:25.786Z,1022.28
2019-02-10T02:49:25.772Z,1022.24
2019-02-10T02:50:25.758Z,1022.25
2019-02-10T02:51:25.744Z,1022.22
2019-02-10T02:52:25.731Z,1022.25
2019-02-10T02:53:25.717Z,1022.15
2019-02-10T02:54:25.703Z,1022.06
2019-02-10T02:55:25.688Z,1022.05
2019-02-10T02:56:25.674Z,1022.04
2019-02-10T02:57:25.660Z,1022
2019-02-10T02:58:25.647Z,1021.97
2019-02-10T02:59:25.684Z,1021.96
2019-02-10T03:00:25.621Z,1021.93
2019-02-10T03:01:25.605Z,1021.97
2019-02-10T03:02:25.591Z,1021.88
2019-02-10T03:03:25.578Z,1021.91
2019-02-10T03:04:25.564Z,1021.88
2019-02-10T03:05:25.550Z,1021.87
2019-02-10T03:06:25.536Z,1021.83
2019-02-10T03:07:25.522Z,1021.86
2019-02-10T03:08:25.508Z,1021.82
2019-02-10T03:09:25.495Z,1021.83
2019-02-10T03:10:25.483Z,1021.81
2019-02-10T03:11:25.467Z,1021.81
2019-02-10T03:12:25.454Z,1021.79
2019-02-10T03:13:25.441Z,1021.8
2019-02-10T03:14:25.427Z,1021.8
2019-02-10T03:15:25.412Z,1021.87
2019-02-10T03:16:25.400Z,1021.85
2019-02-10T03:17:25.385Z,1021.89
2019-02-10T03:18:25.370Z,1021.92
2019-02-10T03:19:25.361Z,1021.83
2019-02-10T03:20:25.344Z,1021.9
2019-02-10T03:21:25.331Z,1021.88
2019-02-10T03:22:25.317Z,1021.89
2019-02-10T03:23:25.303Z,1021.86
2019-02-10T03:24:25.290Z,1021.84
2019-02-10T03:25:25.275Z,1021.87
2019-02-10T03:26:25.261Z,1021.81
2019-02-10T03:27:25.247Z,1021.81
2019-02-10T03:28:25.235Z,1021.79
2019-02-10T03:29:25.219Z,1021.77
2019-02-10T03:30:25.206Z,1021.78
2019-02-10T03:31:25.193Z,1021.72
2019-02-10T03:32:25.180Z,1021.76
2019-02-10T03:33:25.166Z,1021.74
2019-02-10T03:34:25.157Z,1021.77
2019-02-10T03:35:25.136Z,1021.73
2019-02-10T03:36:25.123Z,1021.77
2019-02-10T03:37:27.091Z,1021.8
2019-02-10T03:38:25.096Z,1021.75
2019-02-10T03:39:25.082Z,1021.73
2019-02-10T03:40:25.068Z,1021.77
2019-02-10T03:41:25.055Z,1021.79
2019-02-10T03:42:25.047Z,1021.76
2019-02-10T03:43:25.025Z,1021.78
2019-02-10T03:44:25.013Z,1021.75
2019-02-10T03:45:24.998Z,1021.75
2019-02-10T03:46:24.984Z,1021.76
2019-02-10T03:48:24.955Z,1021.76
2019-02-10T03:49:24.942Z,1021.78
2019-02-10T03:50:24.929Z,1021.76
2019-02-10T03:51:24.916Z,1021.79
2019-02-10T03:52:24.904Z,1021.78
2019-02-10T03:53:24.895Z,1021.81
2019-02-10T03:54:24.874Z,1021.85
2019-02-10T03:55:24.858Z,1021.8
2019-02-10T03:56:24.844Z,1021.81
2019-02-10T03:57:24.831Z,1021.79
2019-02-10T03:58:24.823Z,1021.77
2019-02-10T03:59:24.802Z,1021.75
2019-02-10T04:00:24.788Z,1021.76
2019-02-10T04:01:24.774Z,1021.77
2019-02-10T04:02:24.759Z,1021.74
2019-02-10T04:03:24.745Z,1021.78
2019-02-10T04:04:24.734Z,1021.66
2019-02-10T04:05:24.722Z,1021.72
2019-02-10T04:06:24.704Z,1021.69
2019-02-10T04:07:24.689Z,1021.63
2019-02-10T04:08:24.675Z,1021.65
2019-02-10T04:09:24.661Z,1021.66
2019-02-10T04:10:24.647Z,1021.65
2019-02-10T04:11:24.633Z,1021.64
2019-02-10T04:12:24.620Z,1021.63
2019-02-10T04:13:24.606Z,1021.63
2019-02-10T04:14:24.590Z,1021.64
2019-02-10T04:15:24.578Z,1021.64
2019-02-10T04:16:24.563Z,1021.65
2019-02-10T04:17:24.548Z,1021.63
2019-02-10T04:18:24.534Z,1021.67
2019-02-10T04:19:24.520Z,1021.72
2019-02-10T04:20:24.505Z,1021.71
2019-02-10T04:21:24.491Z,1021.69
2019-02-10T04:22:24.479Z,1021.63
2019-02-10T04:23:24.466Z,1021.68
2019-02-10T04:24:24.449Z,1021.66
2019-02-10T04:25:24.435Z,1021.66
2019-02-10T04:26:24.421Z,1021.63
2019-02-10T04:27:24.406Z,1021.65
2019-02-10T04:28:24.394Z,1021.6
2019-02-10T04:29:24.379Z,1021.62
2019-02-10T04:30:24.375Z,1021.6
2019-02-10T04:31:24.350Z,1021.62
2019-02-10T04:32:24.336Z,1021.64
2019-02-10T04:33:24.324Z,1021.6
2019-02-10T04:34:24.308Z,1021.61
2019-02-10T04:35:24.293Z,1021.61
2019-02-10T04:36:24.278Z,1021.57
2019-02-10T04:37:24.264Z,1021.56
2019-02-10T04:38:24.278Z,1021.58
2019-02-10T04:39:24.239Z,1021.55
2019-02-10T04:40:24.223Z,1021.53
2019-02-10T04:41:24.207Z,1021.5
2019-02-10T04:42:24.192Z,1021.51
2019-02-10T04:43:24.177Z,1021.48
2019-02-10T04:44:24.166Z,1021.46
2019-02-10T04:45:24.153Z,1021.44
2019-02-10T04:46:24.137Z,1021.41
2019-02-10T04:47:24.128Z,1021.39
2019-02-10T04:48:24.107Z,1021.4
2019-02-10T04:49:24.094Z,1021.38
2019-02-10T04:50:24.080Z,1021.38
2019-02-10T04:51:24.064Z,1021.4
2019-02-10T04:52:24.054Z,1021.33
2019-02-10T04:53:24.035Z,1021.31
2019-02-10T04:54:24.020Z,1021.3
2019-02-10T04:55:24.006Z,1021.28
2019-02-10T04:56:23.992Z,1021.26
2019-02-10T04:57:23.977Z,1021.23
2019-02-10T04:58:23.964Z,1021.2
2019-02-10T04:59:23.949Z,1021.22
2019-02-10T05:00:23.934Z,1021.15
2019-02-10T05:01:23.921Z,1021.13
2019-02-10T05:02:23.907Z,1021.07
2019-02-10T05:03:23.892Z,1021.06
2019-02-10T05:04:23.877Z,1021.03
2019-02-10T05:05:23.863Z,1021.03
2019-02-10T05:06:23.849Z,1021.04
2019-02-10T05:07:23.834Z,1021.02
2019-02-10T05:08:23.819Z,1020.99
2019-02-10T05:09:23.807Z,1020.98
2019-02-10T05:10:23.793Z,1020.97
2019-02-10T05:11:23.777Z,1020.99
2019-02-10T05:12:23.766Z,1020.9
2019-02-10T05:13:23.748Z,1020.94
2019-02-10T05:14:23.736Z,1020.92
2019-02-10T05:15:23.720Z,1020.89
2019-02-10T05:16:23.707Z,1020.92
2019-02-10T05:17:23.693Z,1020.88
2019-02-10T05:18:23.678Z,1020.84
2019-02-10T05:19:23.664Z,1020.84
2019-02-10T05:20:23.650Z,1020.79
2019-02-10T05:21:23.636Z,1020.81
2019-02-10T05:22:23.620Z,1020.73
2019-02-10T05:23:23.605Z,1020.72
2019-02-10T05:24:23.591Z,1020.68
2019-02-10T05:25:23.577Z,1020.74
2019-02-10T05:26:23.562Z,1020.7
2019-02-10T05:27:23.548Z,1020.67
2019-02-10T05:28:23.534Z,1020.64
2019-02-10T05:29:23.521Z,1020.61
2019-02-10T05:30:23.513Z,1020.59
2019-02-10T05:31:23.492Z,1020.54
2019-02-10T05:32:23.476Z,1020.5
2019-02-10T05:33:23.473Z,1020.5
2019-02-10T05:34:23.452Z,1020.46
2019-02-10T05:35:23.434Z,1020.41
2019-02-10T05:36:23.419Z,1020.41
2019-02-10T05:37:23.405Z,1020.35
2019-02-10T05:38:23.391Z,1020.32
2019-02-10T05:39:23.377Z,1020.3
2019-02-10T05:40:23.364Z,1020.26
2019-02-10T05:41:23.349Z,1020.2
2019-02-10T05:42:23.342Z,1020.18
2019-02-10T05:43:23.323Z,1020.09
2019-02-10T05:44:23.307Z,1020.06
2019-02-10T05:45:23.291Z,1020.08
2019-02-10T05:46:23.277Z,1020.06
2019-02-10T05:47:23.267Z,1020.02
2019-02-10T05:48:23.249Z,1020.03
2019-02-10T05:49:23.234Z,1019.97
2019-02-10T05:50:23.224Z,1019.95
2019-02-10T05:51:23.209Z,1019.92
2019-02-10T05:52:23.192Z,1019.89
2019-02-10T05:53:23.181Z,1019.9
2019-02-10T05:54:23.167Z,1019.83
2019-02-10T05:55:23.150Z,1019.8
2019-02-10T05:56:23.138Z,1019.76
2019-02-10T05:57:23.123Z,1019.74
2019-02-10T05:58:23.110Z,1019.71
2019-02-10T05:59:23.101Z,1019.7
2019-02-10T06:00:23.083Z,1019.64
2019-02-10T06:01:23.066Z,1019.63
2019-02-10T06:02:23.053Z,1019.6
2019-02-10T06:03:23.043Z,1019.6
2019-02-10T06:04:23.026Z,1019.58
2019-02-10T06:05:23.011Z,1019.53
2019-02-10T06:06:22.997Z,1019.44
2019-02-10T06:07:22.984Z,1019.39
2019-02-10T06:08:22.971Z,1019.33
2019-02-10T06:09:22.956Z,1019.22
2019-02-10T06:10:22.941Z,1019.19
2019-02-10T06:11:22.930Z,1019.16
2019-02-10T06:12:22.915Z,1019.13
2019-02-10T06:13:22.901Z,1019.08
2019-02-10T06:14:22.887Z,1019.08
2019-02-10T06:15:22.873Z,1019
2019-02-10T06:16:22.860Z,1019.02
2019-02-10T06:17:22.847Z,1018.96
2019-02-10T06:18:22.835Z,1018.94
2019-02-10T06:19:22.819Z,1018.88
2019-02-10T06:20:22.807Z,1018.92
2019-02-10T06:21:22.792Z,1018.9
2019-02-10T06:22:22.778Z,1018.9
2019-02-10T06:23:22.765Z,1018.88
2019-02-10T06:24:22.751Z,1018.87
2019-02-10T06:25:22.742Z,1018.91
2019-02-10T06:26:22.724Z,1018.9
2019-02-10T06:27:22.711Z,1018.93
2019-02-10T06:28:22.697Z,1018.92
2019-02-10T06:29:22.683Z,1018.87
2019-02-10T06:30:22.670Z,1018.88
2019-02-10T06:31:22.657Z,1018.83
2019-02-10T06:32:22.643Z,1018.81
2019-02-10T06:33:22.630Z,1018.8
2019-02-10T06:34:22.617Z,1018.8
2019-02-10T06:35:22.613Z,1018.8
2019-02-10T06:36:22.589Z,1018.77
2019-02-10T06:37:22.580Z,1018.71
2019-02-10T06:38:22.962Z,1018.68
2019-02-10T06:39:22.549Z,1018.71
2019-02-10T06:40:22.537Z,1018.61
2019-02-10T06:41:22.521Z,1018.6
2019-02-10T06:42:22.511Z,1018.58
2019-02-10T06:43:22.495Z,1018.56
2019-02-10T06:44:22.483Z,1018.53
2019-02-10T06:45:22.469Z,1018.52
2019-02-10T06:46:22.456Z,1018.47
2019-02-10T06:47:22.443Z,1018.5
2019-02-10T06:48:22.429Z,1018.48
2019-02-10T06:49:22.417Z,1018.45
2019-02-10T06:50:22.402Z,1018.42
2019-02-10T06:51:22.389Z,1018.39
2019-02-10T06:52:22.376Z,1018.37
2019-02-10T06:53:22.363Z,1018.38
2019-02-10T06:54:22.350Z,1018.37
2019-02-10T06:55:22.336Z,1018.33
2019-02-10T06:56:22.325Z,1018.32
2019-02-10T06:57:22.310Z,1018.3
2019-02-10T06:58:22.297Z,1018.26
2019-02-10T06:59:22.283Z,1018.22
2019-02-10T07:00:22.313Z,1018.21
2019-02-10T07:01:22.257Z,1018.14
2019-02-10T07:02:22.244Z,1018.16
2019-02-10T07:03:22.231Z,1018.08
2019-02-10T07:04:22.218Z,1018.02
2019-02-10T07:05:22.204Z,1017.98
2019-02-10T07:06:22.192Z,1017.98
2019-02-10T07:07:22.179Z,1017.93
2019-02-10T07:08:30.148Z,1017.88
2019-02-10T07:09:22.152Z,1017.85
2019-02-10T07:10:22.141Z,1017.77
2019-02-10T07:11:22.126Z,1017.76
2019-02-10T07:12:22.113Z,1017.65
2019-02-10T07:13:22.101Z,1017.59
2019-02-10T07:14:22.087Z,1017.54
2019-02-10T07:15:22.076Z,1017.48
2019-02-10T07:16:22.062Z,1017.51
2019-02-10T07:17:22.049Z,1017.46
2019-02-10T07:18:22.037Z,1017.45
2019-02-10T07:19:22.023Z,1017.42
2019-02-10T07:20:22.012Z,1017.35
2019-02-10T07:21:21.998Z,1017.29
2019-02-10T07:22:21.986Z,1017.25
2019-02-10T07:23:21.971Z,1017.17
2019-02-10T07:24:21.959Z,1017.14
2019-02-10T07:25:21.947Z,1017.12
2019-02-10T07:26:21.934Z,1017.08
2019-02-10T07:27:21.921Z,1017.07
2019-02-10T07:28:21.911Z,1017.05
2019-02-10T07:29:21.897Z,1016.97
2019-02-10T07:30:21.885Z,1016.94
2019-02-10T07:31:21.871Z,1016.91
2019-02-10T07:32:21.860Z,1016.88
2019-02-10T07:33:21.846Z,1016.88
2019-02-10T07:34:21.834Z,1016.86
2019-02-10T07:35:21.821Z,1016.82
2019-02-10T07:36:21.812Z,1016.81
2019-02-10T07:37:21.797Z,1016.82
2019-02-10T07:38:21.784Z,1016.78
2019-02-10T07:39:21.772Z,1016.78
2019-02-10T07:40:21.765Z,1016.74
2019-02-10T07:41:21.748Z,1016.74
2019-02-10T07:42:21.735Z,1016.69
2019-02-10T07:43:21.723Z,1016.71
2019-02-10T07:44:21.711Z,1016.67
2019-02-10T07:45:21.700Z,1016.62
2019-02-10T07:46:21.686Z,1016.59
2019-02-10T07:47:21.674Z,1016.53
2019-02-10T07:48:21.663Z,1016.45
2019-02-10T07:49:21.649Z,1016.41
2019-02-10T07:50:21.636Z,1016.41
2019-02-10T07:51:21.625Z,1016.35
2019-02-10T07:52:21.612Z,1016.31
2019-02-10T07:53:21.600Z,1016.25
2019-02-10T07:54:21.588Z,1016.23
2019-02-10T07:55:21.576Z,1016.2
2019-02-10T07:56:21.563Z,1016.12
2019-02-10T07:57:21.554Z,1016.14
2019-02-10T07:58:21.540Z,1016.17
2019-02-10T07:59:21.528Z,1016.12
2019-02-10T08:00:21.515Z,1016.15
2019-02-10T08:01:21.504Z,1016.08
2019-02-10T08:02:21.493Z,1016.07
2019-02-10T08:03:21.478Z,1016.04
2019-02-10T08:04:21.466Z,1016
2019-02-10T08:05:21.455Z,1015.96
2019-02-10T08:06:21.443Z,1015.92
2019-02-10T08:07:21.430Z,1015.94
2019-02-10T08:08:21.418Z,1015.88
2019-02-10T08:09:21.407Z,1015.81
2019-02-10T08:10:21.395Z,1015.81
2019-02-10T08:11:21.385Z,1015.79
2019-02-10T08:12:21.371Z,1015.77
2019-02-10T08:13:21.359Z,1015.74
2019-02-10T08:14:21.347Z,1015.71
2019-02-10T08:15:21.336Z,1015.69
2019-02-10T08:16:21.323Z,1015.67
2019-02-10T08:17:21.312Z,1015.65
2019-02-10T08:18:21.301Z,1015.66
2019-02-10T08:19:21.287Z,1015.62
2019-02-10T08:20:21.276Z,1015.61
2019-02-10T08:21:21.264Z,1015.59
2019-02-10T08:22:21.253Z,1015.49
2019-02-10T08:23:21.242Z,1015.43
2019-02-10T08:24:21.230Z,1015.38
2019-02-10T08:25:21.218Z,1015.37
2019-02-10T08:26:21.206Z,1015.35
2019-02-10T08:27:21.195Z,1015.33
2019-02-10T08:28:21.190Z,1015.28
2019-02-10T08:29:21.171Z,1015.22
2019-02-10T08:30:21.159Z,1015.29
2019-02-10T08:31:21.148Z,1015.25
2019-02-10T08:32:21.140Z,1015.31
2019-02-10T08:33:21.127Z,1015.27
2019-02-10T08:34:21.116Z,1015.22
2019-02-10T08:35:21.109Z,1015.13
2019-02-10T08:36:21.090Z,1015.13
2019-02-10T08:37:21.080Z,1015.12
2019-02-10T08:38:21.067Z,1015.14
2019-02-10T08:39:21.056Z,1015.09
2019-02-10T08:40:21.042Z,1015.07
2019-02-10T08:41:21.032Z,1015.05
2019-02-10T08:42:21.020Z,1015.03
2019-02-10T08:43:21.009Z,1014.95
2019-02-10T08:44:21.020Z,1014.93
2019-02-10T08:45:20.987Z,1014.93
2019-02-10T08:46:20.975Z,1014.89
2019-02-10T08:47:20.963Z,1014.79
2019-02-10T08:48:20.954Z,1014.75
2019-02-10T08:49:20.942Z,1014.66
2019-02-10T08:50:20.931Z,1014.7
2019-02-10T08:51:20.924Z,1014.69
2019-02-10T08:52:20.909Z,1014.66
2019-02-10T08:53:20.895Z,1014.69
2019-02-10T08:54:20.882Z,1014.68
2019-02-10T08:55:20.902Z,1014.65
2019-02-10T08:56:20.860Z,1014.63
2019-02-10T08:57:20.851Z,1014.65
2019-02-10T08:58:20.837Z,1014.62
2019-02-10T08:59:20.826Z,1014.65
2019-02-10T09:00:20.814Z,1014.66
2019-02-10T09:01:20.803Z,1014.66
2019-02-10T09:02:20.790Z,1014.68
2019-02-10T09:03:20.785Z,1014.66
2019-02-10T09:04:20.772Z,1014.67
2019-02-10T09:05:20.756Z,1014.67
2019-02-10T09:06:20.745Z,1014.62
2019-02-10T09:07:20.734Z,1014.56
2019-02-10T09:08:20.725Z,1014.49
2019-02-10T09:09:20.711Z,1014.54
2019-02-10T09:10:20.700Z,1014.55
2019-02-10T09:11:20.693Z,1014.5
2019-02-10T09:12:20.676Z,1014.56
2019-02-10T09:13:20.663Z,1014.56
2019-02-10T09:14:20.651Z,1014.54
2019-02-10T09:15:20.638Z,1014.51
2019-02-10T09:16:20.630Z,1014.49
2019-02-10T09:17:20.624Z,1014.51
2019-02-10T09:18:20.606Z,1014.45
2019-02-10T09:19:20.658Z,1014.45
2019-02-10T09:20:20.584Z,1014.51
2019-02-10T09:21:20.568Z,1014.52
2019-02-10T09:22:20.555Z,1014.5
2019-02-10T09:23:20.547Z,1014.48
2019-02-10T09:24:20.532Z,1014.45
2019-02-10T09:25:20.570Z,1014.42
2019-02-10T09:26:20.507Z,1014.39
2019-02-10T09:27:20.497Z,1014.38
2019-02-10T09:28:20.483Z,1014.33
2019-02-10T09:29:20.473Z,1014.21
2019-02-10T09:30:20.463Z,1014.16
2019-02-10T09:31:20.453Z,1014.13
2019-02-10T09:32:20.433Z,1014.08
2019-02-10T09:33:20.428Z,1014.05
2019-02-10T09:34:20.410Z,1014
2019-02-10T09:35:20.397Z,1013.94
2019-02-10T09:36:20.385Z,1013.87
2019-02-10T09:37:20.374Z,1013.81
2019-02-10T09:38:20.360Z,1013.72
2019-02-10T09:39:20.352Z,1013.7
2019-02-10T09:40:20.335Z,1013.65
2019-02-10T09:41:20.325Z,1013.52
2019-02-10T09:42:20.310Z,1013.52
2019-02-10T09:43:20.298Z,1013.45
2019-02-10T09:44:20.288Z,1013.48
2019-02-10T09:45:20.275Z,1013.43
2019-02-10T09:46:20.261Z,1013.35
2019-02-10T09:47:20.252Z,1013.33
2019-02-10T09:48:20.236Z,1013.33
2019-02-10T09:49:20.223Z,1013.28
2019-02-10T09:50:20.214Z,1013.24
2019-02-10T09:51:20.203Z,1013.2
2019-02-10T09:52:20.188Z,1013.25
2019-02-10T09:53:20.175Z,1013.14
2019-02-10T09:54:20.164Z,1013.04
2019-02-10T09:55:20.151Z,1013.03
2019-02-10T09:56:20.139Z,1012.95
2019-02-10T09:57:20.127Z,1012.94
2019-02-10T09:58:20.115Z,1012.9
2019-02-10T09:59:20.103Z,1012.86
2019-02-10T10:00:20.092Z,1012.81
2019-02-10T10:01:20.078Z,1012.79
2019-02-10T10:02:20.066Z,1012.72
2019-02-10T10:03:20.053Z,1012.67
2019-02-10T10:04:20.041Z,1012.62
2019-02-10T10:05:20.028Z,1012.59
2019-02-10T10:06:20.019Z,1012.56
2019-02-10T10:07:20.003Z,1012.54
2019-02-10T10:08:19.993Z,1012.45
2019-02-10T10:09:19.981Z,1012.39
2019-02-10T10:10:19.969Z,1012.34
2019-02-10T10:11:19.955Z,1012.29
2019-02-10T10:12:19.944Z,1012.17
2019-02-10T10:13:19.932Z,1012.15
2019-02-10T10:14:19.919Z,1012.01
2019-02-10T10:15:19.906Z,1012.03
2019-02-10T10:16:19.895Z,1011.89
2019-02-10T10:17:19.883Z,1011.88
2019-02-10T10:18:19.871Z,1011.84
2019-02-10T10:19:19.857Z,1011.7
2019-02-10T10:20:19.848Z,1011.69
2019-02-10T10:21:19.836Z,1011.61
2019-02-10T10:22:19.822Z,1011.51
2019-02-10T10:23:19.811Z,1011.41
2019-02-10T10:24:19.799Z,1011.39
2019-02-10T10:25:19.789Z,1011.31
2019-02-10T10:26:19.774Z,1011.23
2019-02-10T10:27:19.763Z,1011.17
2019-02-10T10:28:19.751Z,1011.14
2019-02-10T10:29:19.739Z,1011.03
2019-02-10T10:30:19.728Z,1011.01
2019-02-10T10:31:19.715Z,1011.04
2019-02-10T10:32:19.704Z,1010.96
2019-02-10T10:33:19.692Z,1010.92
2019-02-10T10:34:19.684Z,1010.83
2019-02-10T10:35:19.669Z,1010.69
2019-02-10T10:36:19.659Z,1010.68
2019-02-10T10:37:19.647Z,1010.61
2019-02-10T10:38:19.634Z,1010.56
2019-02-10T10:39:26.932Z,1010.52
2019-02-10T10:40:19.610Z,1010.48
2019-02-10T10:41:19.598Z,1010.47
2019-02-10T10:42:19.587Z,1010.5
2019-02-10T10:43:19.576Z,1010.3
2019-02-10T10:44:19.562Z,1010.31
2019-02-10T10:45:19.552Z,1010.25
2019-02-10T10:46:19.540Z,1010.29
2019-02-10T10:47:19.530Z,1010.52
2019-02-10T10:48:19.518Z,1010.47
2019-02-10T10:49:19.505Z,1010.52
2019-02-10T10:50:19.494Z,1010.28
2019-02-10T10:51:19.481Z,1010.36
2019-02-10T10:52:19.475Z,1010.37
2019-02-10T10:53:19.459Z,1010.36
2019-02-10T10:54:19.447Z,1010.34
2019-02-10T10:55:19.434Z,1010.26
2019-02-10T10:56:19.422Z,1010.17
2019-02-10T10:57:19.410Z,1010.13
2019-02-10T10:58:19.399Z,1010.08
2019-02-10T10:59:19.387Z,1010.05
2019-02-10T11:00:19.376Z,1010.02
2019-02-10T11:01:25.086Z,1010.02
2019-02-10T11:02:19.352Z,1010.07
2019-02-10T11:03:19.340Z,1010
2019-02-10T11:04:19.330Z,1009.96
2019-02-10T11:05:19.316Z,1009.95
2019-02-10T11:06:19.305Z,1009.98
2019-02-10T11:07:19.292Z,1009.94
2019-02-10T11:08:19.282Z,1009.9
2019-02-10T11:09:19.270Z,1009.92
2019-02-10T11:10:19.258Z,1009.89
2019-02-10T11:11:19.249Z,1009.87
2019-02-10T11:12:19.235Z,1009.71
2019-02-10T11:13:19.222Z,1009.85
2019-02-10T11:14:19.213Z,1009.77
2019-02-10T11:15:19.199Z,1009.71
2019-02-10T11:16:19.187Z,1009.75
2019-02-10T11:17:19.175Z,1009.69
2019-02-10T11:18:19.163Z,1009.69
2019-02-10T11:19:19.154Z,1009.69
2019-02-10T11:20:19.142Z,1009.64
2019-02-10T11:21:19.128Z,1009.68
2019-02-10T11:22:19.116Z,1009.7
2019-02-10T11:23:19.105Z,1009.69
2019-02-10T11:24:19.093Z,1009.59
2019-02-10T11:25:19.081Z,1009.56
2019-02-10T11:26:19.069Z,1009.55
2019-02-10T11:27:19.057Z,1009.52
2019-02-10T11:28:19.046Z,1009.49
2019-02-10T11:29:19.033Z,1009.36
2019-02-10T11:30:19.022Z,1009.35
2019-02-10T11:31:19.010Z,1009.3
2019-02-10T11:32:18.998Z,1009.23
2019-02-10T11:33:18.992Z,1009.26
2019-02-10T11:34:18.975Z,1009.29
2019-02-10T11:35:18.963Z,1009.23
2019-02-10T11:36:18.951Z,1009.24
2019-02-10T11:37:26.535Z,1009.21
2019-02-10T11:38:18.929Z,1009.27
2019-02-10T11:39:18.915Z,1009.19
2019-02-10T11:40:18.904Z,1009.22
2019-02-10T11:41:18.892Z,1009.17
2019-02-10T11:42:18.880Z,1009.16
2019-02-10T11:43:18.868Z,1009.18
2019-02-10T11:44:18.857Z,1009.06
2019-02-10T11:45:18.844Z,1009.1
2019-02-10T11:46:18.833Z,1008.99
2019-02-10T11:47:18.821Z,1008.85
2019-02-10T11:48:18.809Z,1008.85
2019-02-10T11:49:18.797Z,1008.84
2019-02-10T11:50:18.784Z,1008.82
2019-02-10T11:51:18.774Z,1008.66
2019-02-10T11:52:18.765Z,1008.59
2019-02-10T11:53:18.750Z,1008.44
2019-02-10T11:54:18.738Z,1008.49
2019-02-10T11:55:18.780Z,1008.46
2019-02-10T11:56:18.715Z,1008.46
2019-02-10T11:57:18.703Z,1008.54
2019-02-10T11:58:18.690Z,1008.44
2019-02-10T11:59:18.679Z,1008.37
2019-02-10T12:00:18.667Z,1008.34
2019-02-10T12:01:18.656Z,1008.17
2019-02-10T12:02:18.643Z,1008.15
2019-02-10T12:03:18.632Z,1008.14
2019-02-10T12:04:18.620Z,1008.03
2019-02-10T12:05:18.608Z,1008.01
2019-02-10T12:06:18.597Z,1007.98
2019-02-10T12:07:18.593Z,1008.03
2019-02-10T12:08:18.573Z,1008.04
2019-02-10T12:09:18.562Z,1007.87
2019-02-10T12:10:18.552Z,1007.89